Etusivu
METAR-TAF:

METAR-TAF

Lentoasemat :

Port Isabel-Cameron County Airport

Port Isabel, Texas, Yhdysvallat

Leveyspiiri: 26-09-33N, Pituuspiiri: 097-20-15W, korkeus merenpinnasta: 5 m

Tämänhetkinen sää

Tämä raportti tehtiin 6 minuuttia sitten, kello 19.19 UTC
Tuuli 20 kn kaakosta
Lämpötila 33°C
Kosteus 67%
Ilmanpaine 1009 hPa
Näkyvyys: 11.3 km
Hajonneita pilviä 2900 ft:n korkeudessa

METAR: KPIL 241919Z AUTO 13020KT 7SM BKN029 33/26 A2981 RMK AO2 PK WND 13027/1859 T03280256

Aika: 14:25 (19:25 UTC)


TAF: puuttuu

Säähavainnot ja -ennusteet yli 4000 lentoasemalta (METAR- ja TAF-raportit).

Käytössä olevat sääasemat on merkitty karttaan keltaisilla ja punaisilla pisteillä.

Aseta hiiri pisteen päälle nähdäksesi sääaseman nimen.

Klikkaa sitten nähdäksesi säähavainnot ja -ennusteet.

Kartan vaihtaminen: klikkaa mustalla rastilla varustettuja vihreitä pisteitä, niin voit zoomata sisään; viivalla varustettua vihreää pistettä, niin voit zoomata ulos tai vihreitä nuolia, niin pääset viereisille kartoille.


METAR-TAF: